Mir — UFPV — position and weather

sailwx.info

Track history (hours):
 
Tides and Currents Weather Stations Pressure Air Temp Water Temp Dewpoint Dewpoint Depression Visibility Wind Speed Wind Dir Waves Ship Positions

Mir (Russia)

Last reported at 2020-Aug-07 06:30 UTC. Time now 2020-Aug-07 09:37 UTC.
Position N 55°37' E 018°12'.

Length 109 m; draft 6.5 m.

Type: Sailing vessel. MMSI: 273133767.

Date/timePositionNaut miles runAvg speedWind from/ knotsBaromVisibWave heightAir tempDewpointWater temp
2020-Aug-07 06:30N 55°37' E 018°12'5 3.2
2020-Aug-07 05:00N 55°39' E 018°20'2 3.3
2020-Aug-07 04:31N 55°40' E 018°22'2 3.2
2020-Aug-07 04:00N 55°41' E 018°25'2 3.3
2020-Aug-07 03:30N 55°41' E 018°28'5 1.9
2020-Aug-07 01:01N 55°38' E 018°22'3 1.7
2020-Aug-06 23:30N 55°36' E 018°18'5 2.3
2020-Aug-06 21:29N 55°33' E 018°12'5 3.1
2020-Aug-06 19:53N 55°29' E 018°06'16 1.1
2020-Aug-06 06:01N 55°16' E 017°50'0 0.8
2020-Aug-06 05:30N 55°17' E 017°50'1 0.9
2020-Aug-06 04:30N 55°17' E 017°48'0 0.9
2020-Aug-06 04:00N 55°17' E 017°47'2 1.0
2020-Aug-06 02:00N 55°17' E 017°44'0 1.0
2020-Aug-06 01:31N 55°17' E 017°43'3 1.0
2020-Aug-05 22:30N 55°16' E 017°38'3 1.1
2020-Aug-05 19:55N 55°14' E 017°36'0 1.0
2020-Aug-05 19:30N 55°13' E 017°36'2 0.8
2020-Aug-05 17:25N 55°12' E 017°36'1 0.3
2020-Aug-05 13:55N 55°11' E 017°36'1 0.5
2020-Aug-05 12:32N 55°11' E 017°35'0 1.2
2020-Aug-05 12:30N 55°11' E 017°34'35 1.4
2020-Aug-04 10:59N 55°45' E 017°48'158 3.4
2020-Aug-02 13:03N 58°00' E 020°16'0 5.6
2020-Aug-02 13:00N 58°00' E 020°17'3 5.7
2020-Aug-02 12:30N 58°03' E 020°19'12 5.8
2020-Aug-02 10:30N 58°13' E 020°28'3 6.0
2020-Aug-02 10:00N 58°16' E 020°32'20 5.6
2020-Aug-02 06:29N 58°32' E 020°52'20 5.8
2020-Aug-02 02:58N 58°49' E 021°13'6 6.0
2020-Aug-02 02:00N 58°54' E 021°19'9 6.0
2020-Aug-02 00:30N 59°02' E 021°28'13 6.3
2020-Aug-01 22:30N 59°12' E 021°43'50 5.9
2020-Aug-01 14:00N 59°37' E 023°09'57 6.8
2020-Aug-01 05:30N 59°51' E 024°59'19 7.7
2020-Aug-01 02:59N 59°54' E 025°37'6 7.9
2020-Aug-01 02:16N 59°55' E 025°48'14 7.8
2020-Aug-01 00:30N 59°58' E 026°14'4 7.9
2020-Aug-01 00:00N 59°60' E 026°22'19 7.7
2020-Jul-31 21:30N 59°59' E 027°01'26 7.5
2020-Jul-31 18:00N 60°12' E 027°47'18 7.1
2020-Jul-31 15:30N 60°06' E 028°21'16 4.6
2020-Jul-31 12:01N 59°51' E 028°26'10 5.0
2020-Jul-31 09:58N 59°41' E 028°25'0 0.0
2020-Jul-31 06:19N 59°41' E 028°25'0 0.0
2020-Jul-31 05:46N 59°41' E 028°25'0 0.0
2020-Jul-31 04:54N 59°41' E 028°25'0 0.0
2020-Jul-31 03:54N 59°41' E 028°25'0 0.0
2020-Jul-31 00:57N 59°41' E 028°25'0 0.0
2020-Jul-31 00:27N 59°41' E 028°25'0 0.0
2020-Jul-30 22:30N 59°41' E 028°25'0 0.0
2020-Jul-30 21:30N 59°41' E 028°25'0 0.0
2020-Jul-30 20:30N 59°41' E 028°25'0 0.0
2020-Jul-30 19:30N 59°41' E 028°25'0 0.0
2020-Jul-30 13:21N 59°41' E 028°25'0 0.0
2020-Jul-30 10:24N 59°41' E 028°25'0 0.0
2020-Jul-30 08:57N 59°41' E 028°25'0 0.0
2020-Jul-30 08:27N 59°41' E 028°25'0 0.0
2020-Jul-30 05:51N 59°41' E 028°25'0 0.0
2020-Jul-30 03:54N 59°41' E 028°25'0 0.0
2020-Jul-29 21:00N 59°41' E 028°25'0 0.0
2020-Jul-29 20:30N 59°41' E 028°25'0 0.0
2020-Jul-29 19:30N 59°41' E 028°25'0 0.0
2020-Jul-29 17:00N 59°41' E 028°25'0 0.0
2020-Jul-29 16:30N 59°41' E 028°25'0 0.0
2020-Jul-29 15:30N 59°41' E 028°25'0 0.0
2020-Jul-29 14:27N 59°41' E 028°25'0 0.0
2020-Jul-29 09:27N 59°41' E 028°25'0 0.0
2020-Jul-29 05:00N 59°41' E 028°25'0 0.0
2020-Jul-29 03:00N 59°41' E 028°25'0 0.0
2020-Jul-29 01:00N 59°41' E 028°25'0 0.0
2020-Jul-28 23:30N 59°41' E 028°25'0 0.0
2020-Jul-28 19:21N 59°41' E 028°25'0 0.0
2020-Jul-28 17:00N 59°41' E 028°25'0 0.0
2020-Jul-28 15:00N 59°41' E 028°25'0 0.0
2020-Jul-28 13:00N 59°41' E 028°25'0 0.0
2020-Jul-28 11:30N 59°41' E 028°25'0 0.0
2020-Jul-28 11:00N 59°41' E 028°25'0 0.0
2020-Jul-28 10:30N 59°41' E 028°25'0 0.0
2020-Jul-28 09:30N 59°41' E 028°25'  
Track history (hours):
 
Tides and Currents Weather Stations Pressure Air Temp Water Temp Dewpoint Dewpoint Depression Visibility Wind Speed Wind Dir Waves Ship Positions

Mir (Russia)

Last reported at 2020-Aug-07 06:30 UTC. Time now 2020-Aug-07 09:37 UTC.
Position N 55°37' E 018°12'.

Length 109 m; draft 6.5 m.

Type: Sailing vessel. MMSI: 273133767.

Date/timePositionNaut miles runAvg speedWind from/ knotsBaromVisibWave heightAir tempDewpointWater temp
2020-Aug-07 06:30N 55°37' E 018°12'5 3.2
2020-Aug-07 05:00N 55°39' E 018°20'2 3.3
2020-Aug-07 04:31N 55°40' E 018°22'2 3.2
2020-Aug-07 04:00N 55°41' E 018°25'2 3.3
2020-Aug-07 03:30N 55°41' E 018°28'5 1.9
2020-Aug-07 01:01N 55°38' E 018°22'3 1.7
2020-Aug-06 23:30N 55°36' E 018°18'5 2.3
2020-Aug-06 21:29N 55°33' E 018°12'5 3.1
2020-Aug-06 19:53N 55°29' E 018°06'16 1.1
2020-Aug-06 06:01N 55°16' E 017°50'0 0.8
2020-Aug-06 05:30N 55°17' E 017°50'1 0.9
2020-Aug-06 04:30N 55°17' E 017°48'0 0.9
2020-Aug-06 04:00N 55°17' E 017°47'2 1.0
2020-Aug-06 02:00N 55°17' E 017°44'0 1.0
2020-Aug-06 01:31N 55°17' E 017°43'3 1.0
2020-Aug-05 22:30N 55°16' E 017°38'3 1.1
2020-Aug-05 19:55N 55°14' E 017°36'0 1.0
2020-Aug-05 19:30N 55°13' E 017°36'2 0.8
2020-Aug-05 17:25N 55°12' E 017°36'1 0.3
2020-Aug-05 13:55N 55°11' E 017°36'1 0.5
2020-Aug-05 12:32N 55°11' E 017°35'0 1.2
2020-Aug-05 12:30N 55°11' E 017°34'35 1.4
2020-Aug-04 10:59N 55°45' E 017°48'158 3.4
2020-Aug-02 13:03N 58°00' E 020°16'0 5.6
2020-Aug-02 13:00N 58°00' E 020°17'3 5.7
2020-Aug-02 12:30N 58°03' E 020°19'12 5.8
2020-Aug-02 10:30N 58°13' E 020°28'3 6.0
2020-Aug-02 10:00N 58°16' E 020°32'20 5.6
2020-Aug-02 06:29N 58°32' E 020°52'20 5.8
2020-Aug-02 02:58N 58°49' E 021°13'6 6.0
2020-Aug-02 02:00N 58°54' E 021°19'9 6.0
2020-Aug-02 00:30N 59°02' E 021°28'13 6.3
2020-Aug-01 22:30N 59°12' E 021°43'50 5.9
2020-Aug-01 14:00N 59°37' E 023°09'57 6.8
2020-Aug-01 05:30N 59°51' E 024°59'19 7.7
2020-Aug-01 02:59N 59°54' E 025°37'6 7.9
2020-Aug-01 02:16N 59°55' E 025°48'14 7.8
2020-Aug-01 00:30N 59°58' E 026°14'4 7.9
2020-Aug-01 00:00N 59°60' E 026°22'19 7.7
2020-Jul-31 21:30N 59°59' E 027°01'26 7.5
2020-Jul-31 18:00N 60°12' E 027°47'18 7.1
2020-Jul-31 15:30N 60°06' E 028°21'16 4.6
2020-Jul-31 12:01N 59°51' E 028°26'10 5.0
2020-Jul-31 09:58N 59°41' E 028°25'0 0.0
2020-Jul-31 06:19N 59°41' E 028°25'0 0.0
2020-Jul-31 05:46N 59°41' E 028°25'0 0.0
2020-Jul-31 04:54N 59°41' E 028°25'0 0.0
2020-Jul-31 03:54N 59°41' E 028°25'0 0.0
2020-Jul-31 00:57N 59°41' E 028°25'0 0.0
2020-Jul-31 00:27N 59°41' E 028°25'0 0.0
2020-Jul-30 22:30N 59°41' E 028°25'0 0.0
2020-Jul-30 21:30N 59°41' E 028°25'0 0.0
2020-Jul-30 20:30N 59°41' E 028°25'0 0.0
2020-Jul-30 19:30N 59°41' E 028°25'0 0.0
2020-Jul-30 13:21N 59°41' E 028°25'0 0.0
2020-Jul-30 10:24N 59°41' E 028°25'0 0.0
2020-Jul-30 08:57N 59°41' E 028°25'0 0.0
2020-Jul-30 08:27N 59°41' E 028°25'0 0.0
2020-Jul-30 05:51N 59°41' E 028°25'0 0.0
2020-Jul-30 03:54N 59°41' E 028°25'0 0.0
2020-Jul-29 21:00N 59°41' E 028°25'0 0.0
2020-Jul-29 20:30N 59°41' E 028°25'0 0.0
2020-Jul-29 19:30N 59°41' E 028°25'0 0.0
2020-Jul-29 17:00N 59°41' E 028°25'0 0.0
2020-Jul-29 16:30N 59°41' E 028°25'0 0.0
2020-Jul-29 15:30N 59°41' E 028°25'0 0.0
2020-Jul-29 14:27N 59°41' E 028°25'0 0.0
2020-Jul-29 09:27N 59°41' E 028°25'0 0.0
2020-Jul-29 05:00N 59°41' E 028°25'0 0.0
2020-Jul-29 03:00N 59°41' E 028°25'0 0.0
2020-Jul-29 01:00N 59°41' E 028°25'0 0.0
2020-Jul-28 23:30N 59°41' E 028°25'0 0.0
2020-Jul-28 19:21N 59°41' E 028°25'0 0.0
2020-Jul-28 17:00N 59°41' E 028°25'0 0.0
2020-Jul-28 15:00N 59°41' E 028°25'0 0.0
2020-Jul-28 13:00N 59°41' E 028°25'0 0.0
2020-Jul-28 11:30N 59°41' E 028°25'0 0.0
2020-Jul-28 11:00N 59°41' E 028°25'0 0.0
2020-Jul-28 10:30N 59°41' E 028°25'0 0.0
2020-Jul-28 09:30N 59°41' E 028°25'  

Dump ship's entire track history